sensor_id;sensor_type;location;lat;lon;timestamp;temperature;humidity
10453;DHT22;5274;51.992;8.518;2024-03-29T00:01:48;7.80;60.40
10453;DHT22;5274;51.992;8.518;2024-03-29T00:04:14;7.80;60.30
10453;DHT22;5274;51.992;8.518;2024-03-29T00:06:39;7.70;60.70
10453;DHT22;5274;51.992;8.518;2024-03-29T00:09:05;7.70;60.50
10453;DHT22;5274;51.992;8.518;2024-03-29T00:11:30;7.70;60.80
10453;DHT22;5274;51.992;8.518;2024-03-29T00:13:56;7.70;60.60
10453;DHT22;5274;51.992;8.518;2024-03-29T00:16:22;7.70;60.60
10453;DHT22;5274;51.992;8.518;2024-03-29T00:18:51;7.70;60.70
10453;DHT22;5274;51.992;8.518;2024-03-29T00:21:17;7.80;60.50
10453;DHT22;5274;51.992;8.518;2024-03-29T00:23:42;7.80;60.10
10453;DHT22;5274;51.992;8.518;2024-03-29T00:26:10;7.80;60.50
10453;DHT22;5274;51.992;8.518;2024-03-29T00:28:35;7.80;60.10
10453;DHT22;5274;51.992;8.518;2024-03-29T00:31:01;7.80;60.30
10453;DHT22;5274;51.992;8.518;2024-03-29T00:33:26;7.70;60.60
10453;DHT22;5274;51.992;8.518;2024-03-29T00:35:52;7.70;60.60
10453;DHT22;5274;51.992;8.518;2024-03-29T00:38:17;7.70;60.60
10453;DHT22;5274;51.992;8.518;2024-03-29T00:40:43;7.70;60.40
10453;DHT22;5274;51.992;8.518;2024-03-29T00:43:08;7.80;60.10
10453;DHT22;5274;51.992;8.518;2024-03-29T00:45:34;7.80;60.10
10453;DHT22;5274;51.992;8.518;2024-03-29T00:47:59;7.70;60.40
10453;DHT22;5274;51.992;8.518;2024-03-29T00:50:24;7.70;60.30
10453;DHT22;5274;51.992;8.518;2024-03-29T00:52:50;7.70;60.20
10453;DHT22;5274;51.992;8.518;2024-03-29T00:55:16;7.70;60.20
10453;DHT22;5274;51.992;8.518;2024-03-29T00:57:41;7.70;60.20
10453;DHT22;5274;51.992;8.518;2024-03-29T01:00:07;7.60;60.90
10453;DHT22;5274;51.992;8.518;2024-03-29T01:02:35;7.50;60.80
10453;DHT22;5274;51.992;8.518;2024-03-29T01:05:01;7.60;60.80
10453;DHT22;5274;51.992;8.518;2024-03-29T01:07:26;7.60;60.50
10453;DHT22;5274;51.992;8.518;2024-03-29T01:09:52;7.70;60.10
10453;DHT22;5274;51.992;8.518;2024-03-29T01:12:17;7.70;60.00
10453;DHT22;5274;51.992;8.518;2024-03-29T01:14:44;7.70;59.80
10453;DHT22;5274;51.992;8.518;2024-03-29T01:17:10;7.70;59.90
10453;DHT22;5274;51.992;8.518;2024-03-29T01:19:35;7.60;60.00
10453;DHT22;5274;51.992;8.518;2024-03-29T01:22:01;7.70;60.20
10453;DHT22;5274;51.992;8.518;2024-03-29T01:24:27;7.60;60.00
10453;DHT22;5274;51.992;8.518;2024-03-29T01:26:52;7.60;60.30
10453;DHT22;5274;51.992;8.518;2024-03-29T01:29:19;7.50;60.20
10453;DHT22;5274;51.992;8.518;2024-03-29T01:31:44;7.40;60.60
10453;DHT22;5274;51.992;8.518;2024-03-29T01:34:10;7.50;60.50
10453;DHT22;5274;51.992;8.518;2024-03-29T01:36:36;7.50;60.40
10453;DHT22;5274;51.992;8.518;2024-03-29T01:39:01;7.70;59.50
10453;DHT22;5274;51.992;8.518;2024-03-29T01:41:27;7.80;58.80
10453;DHT22;5274;51.992;8.518;2024-03-29T01:43:53;7.80;58.60
10453;DHT22;5274;51.992;8.518;2024-03-29T01:46:23;7.80;58.40
10453;DHT22;5274;51.992;8.518;2024-03-29T01:48:53;7.80;58.40
10453;DHT22;5274;51.992;8.518;2024-03-29T01:51:20;7.80;58.30
10453;DHT22;5274;51.992;8.518;2024-03-29T01:53:47;7.80;58.20
10453;DHT22;5274;51.992;8.518;2024-03-29T01:56:15;7.80;58.00
10453;DHT22;5274;51.992;8.518;2024-03-29T01:58:41;7.90;57.50
10453;DHT22;5274;51.992;8.518;2024-03-29T02:01:08;8.00;57.30
10453;DHT22;5274;51.992;8.518;2024-03-29T02:03:33;8.00;57.30
10453;DHT22;5274;51.992;8.518;2024-03-29T02:05:59;7.90;57.40
10453;DHT22;5274;51.992;8.518;2024-03-29T02:08:28;7.90;57.10
10453;DHT22;5274;51.992;8.518;2024-03-29T02:10:54;7.90;57.30
10453;DHT22;5274;51.992;8.518;2024-03-29T02:13:20;7.90;56.90
10453;DHT22;5274;51.992;8.518;2024-03-29T02:15:45;8.00;56.80
10453;DHT22;5274;51.992;8.518;2024-03-29T02:18:11;8.10;56.00
10453;DHT22;5274;51.992;8.518;2024-03-29T02:20:36;8.20;56.20
10453;DHT22;5274;51.992;8.518;2024-03-29T02:23:06;8.10;56.10
10453;DHT22;5274;51.992;8.518;2024-03-29T02:25:33;8.10;56.20
10453;DHT22;5274;51.992;8.518;2024-03-29T02:27:59;8.20;55.80
10453;DHT22;5274;51.992;8.518;2024-03-29T02:30:26;8.10;56.60
10453;DHT22;5274;51.992;8.518;2024-03-29T02:32:52;8.00;56.80
10453;DHT22;5274;51.992;8.518;2024-03-29T02:35:18;8.10;56.40
10453;DHT22;5274;51.992;8.518;2024-03-29T02:37:43;8.20;55.90
10453;DHT22;5274;51.992;8.518;2024-03-29T02:40:09;8.20;55.90
10453;DHT22;5274;51.992;8.518;2024-03-29T02:42:35;8.10;56.20
10453;DHT22;5274;51.992;8.518;2024-03-29T02:45:02;8.20;55.60
10453;DHT22;5274;51.992;8.518;2024-03-29T02:47:27;8.20;55.90
10453;DHT22;5274;51.992;8.518;2024-03-29T02:49:53;8.00;56.50
10453;DHT22;5274;51.992;8.518;2024-03-29T02:52:18;8.00;56.20
10453;DHT22;5274;51.992;8.518;2024-03-29T02:54:45;8.10;55.70
10453;DHT22;5274;51.992;8.518;2024-03-29T02:57:10;8.00;56.30
10453;DHT22;5274;51.992;8.518;2024-03-29T02:59:36;8.00;56.50
10453;DHT22;5274;51.992;8.518;2024-03-29T03:02:01;8.00;56.30
10453;DHT22;5274;51.992;8.518;2024-03-29T03:04:27;7.90;57.00
10453;DHT22;5274;51.992;8.518;2024-03-29T03:06:52;7.90;56.80
10453;DHT22;5274;51.992;8.518;2024-03-29T03:09:18;7.90;56.70
10453;DHT22;5274;51.992;8.518;2024-03-29T03:12:02;7.90;56.80
10453;DHT22;5274;51.992;8.518;2024-03-29T03:14:27;7.90;57.00
10453;DHT22;5274;51.992;8.518;2024-03-29T03:16:53;8.00;57.10
10453;DHT22;5274;51.992;8.518;2024-03-29T03:19:19;7.90;57.20
10453;DHT22;5274;51.992;8.518;2024-03-29T03:21:44;8.00;57.40
10453;DHT22;5274;51.992;8.518;2024-03-29T03:24:10;8.00;57.20
10453;DHT22;5274;51.992;8.518;2024-03-29T03:26:37;8.00;57.30
10453;DHT22;5274;51.992;8.518;2024-03-29T03:29:03;8.00;57.40
10453;DHT22;5274;51.992;8.518;2024-03-29T03:31:28;8.00;57.50
10453;DHT22;5274;51.992;8.518;2024-03-29T03:33:53;8.00;57.60
10453;DHT22;5274;51.992;8.518;2024-03-29T03:36:19;8.10;57.40
10453;DHT22;5274;51.992;8.518;2024-03-29T03:38:44;8.10;57.50
10453;DHT22;5274;51.992;8.518;2024-03-29T03:41:10;8.10;57.70
10453;DHT22;5274;51.992;8.518;2024-03-29T03:43:35;8.00;58.30
10453;DHT22;5274;51.992;8.518;2024-03-29T03:46:01;7.90;58.40
10453;DHT22;5274;51.992;8.518;2024-03-29T03:48:27;8.00;58.90
10453;DHT22;5274;51.992;8.518;2024-03-29T03:50:55;8.10;58.50
10453;DHT22;5274;51.992;8.518;2024-03-29T03:53:20;8.10;58.60
10453;DHT22;5274;51.992;8.518;2024-03-29T03:55:46;8.10;58.00
10453;DHT22;5274;51.992;8.518;2024-03-29T03:58:11;8.10;58.20
10453;DHT22;5274;51.992;8.518;2024-03-29T04:00:37;8.20;58.00
10453;DHT22;5274;51.992;8.518;2024-03-29T04:03:03;8.20;58.40
10453;DHT22;5274;51.992;8.518;2024-03-29T04:05:29;8.20;58.30
10453;DHT22;5274;51.992;8.518;2024-03-29T04:07:56;8.30;57.90
10453;DHT22;5274;51.992;8.518;2024-03-29T04:10:22;8.20;57.90
10453;DHT22;5274;51.992;8.518;2024-03-29T04:12:47;8.30;57.90
10453;DHT22;5274;51.992;8.518;2024-03-29T04:15:15;8.40;57.90
10453;DHT22;5274;51.992;8.518;2024-03-29T04:17:40;8.40;57.80
10453;DHT22;5274;51.992;8.518;2024-03-29T04:20:06;8.40;58.50
10453;DHT22;5274;51.992;8.518;2024-03-29T04:22:32;8.40;58.50
10453;DHT22;5274;51.992;8.518;2024-03-29T04:24:57;8.60;58.40
10453;DHT22;5274;51.992;8.518;2024-03-29T04:27:23;8.60;58.90
10453;DHT22;5274;51.992;8.518;2024-03-29T04:29:52;8.70;59.10
10453;DHT22;5274;51.992;8.518;2024-03-29T04:32:18;8.80;59.20
10453;DHT22;5274;51.992;8.518;2024-03-29T04:34:49;8.80;59.50
10453;DHT22;5274;51.992;8.518;2024-03-29T04:37:15;8.70;60.60
10453;DHT22;5274;51.992;8.518;2024-03-29T04:39:42;8.70;61.00
10453;DHT22;5274;51.992;8.518;2024-03-29T04:42:08;8.70;61.20
10453;DHT22;5274;51.992;8.518;2024-03-29T04:44:34;8.70;62.30
10453;DHT22;5274;51.992;8.518;2024-03-29T04:46:59;8.60;63.10
10453;DHT22;5274;51.992;8.518;2024-03-29T04:49:25;8.80;63.00
10453;DHT22;5274;51.992;8.518;2024-03-29T04:51:58;8.80;63.10
10453;DHT22;5274;51.992;8.518;2024-03-29T04:54:24;8.70;64.00
10453;DHT22;5274;51.992;8.518;2024-03-29T04:56:49;8.70;64.30
10453;DHT22;5274;51.992;8.518;2024-03-29T04:59:15;8.60;65.50
10453;DHT22;5274;51.992;8.518;2024-03-29T05:01:43;8.60;65.80
10453;DHT22;5274;51.992;8.518;2024-03-29T05:04:18;8.50;65.60
10453;DHT22;5274;51.992;8.518;2024-03-29T05:06:59;8.40;66.50
10453;DHT22;5274;51.992;8.518;2024-03-29T05:09:25;8.40;65.60
10453;DHT22;5274;51.992;8.518;2024-03-29T05:11:51;8.30;67.10
10453;DHT22;5274;51.992;8.518;2024-03-29T05:14:18;8.30;67.80
10453;DHT22;5274;51.992;8.518;2024-03-29T05:16:44;8.30;68.00
10453;DHT22;5274;51.992;8.518;2024-03-29T05:19:11;8.50;67.20
10453;DHT22;5274;51.992;8.518;2024-03-29T05:21:37;8.60;67.10
10453;DHT22;5274;51.992;8.518;2024-03-29T05:24:02;8.80;66.60
10453;DHT22;5274;51.992;8.518;2024-03-29T05:26:28;8.60;67.20
10453;DHT22;5274;51.992;8.518;2024-03-29T05:28:53;8.50;67.90
10453;DHT22;5274;51.992;8.518;2024-03-29T05:31:22;8.60;68.20
10453;DHT22;5274;51.992;8.518;2024-03-29T05:33:48;8.50;68.20
10453;DHT22;5274;51.992;8.518;2024-03-29T05:36:14;8.50;68.40
10453;DHT22;5274;51.992;8.518;2024-03-29T05:38:40;8.70;67.80
10453;DHT22;5274;51.992;8.518;2024-03-29T05:41:05;8.60;67.30
10453;DHT22;5274;51.992;8.518;2024-03-29T05:43:31;8.70;67.50
10453;DHT22;5274;51.992;8.518;2024-03-29T05:45:56;8.60;67.80
10453;DHT22;5274;51.992;8.518;2024-03-29T05:48:22;8.60;67.40
10453;DHT22;5274;51.992;8.518;2024-03-29T05:50:48;8.50;67.30
10453;DHT22;5274;51.992;8.518;2024-03-29T05:53:13;8.40;68.20
10453;DHT22;5274;51.992;8.518;2024-03-29T05:55:39;8.40;68.70
10453;DHT22;5274;51.992;8.518;2024-03-29T05:58:04;8.30;68.90
10453;DHT22;5274;51.992;8.518;2024-03-29T06:00:32;8.20;69.60
10453;DHT22;5274;51.992;8.518;2024-03-29T06:02:58;8.50;69.00
10453;DHT22;5274;51.992;8.518;2024-03-29T06:05:24;8.50;68.60
10453;DHT22;5274;51.992;8.518;2024-03-29T06:07:49;8.50;68.70
10453;DHT22;5274;51.992;8.518;2024-03-29T06:10:15;8.50;69.00
10453;DHT22;5274;51.992;8.518;2024-03-29T06:12:42;8.50;68.80
10453;DHT22;5274;51.992;8.518;2024-03-29T06:15:07;8.60;67.90
10453;DHT22;5274;51.992;8.518;2024-03-29T06:17:59;8.50;68.50
10453;DHT22;5274;51.992;8.518;2024-03-29T06:20:25;8.50;68.70
10453;DHT22;5274;51.992;8.518;2024-03-29T06:22:50;8.50;69.70
10453;DHT22;5274;51.992;8.518;2024-03-29T06:25:16;8.60;68.90
10453;DHT22;5274;51.992;8.518;2024-03-29T06:27:42;8.50;69.00
10453;DHT22;5274;51.992;8.518;2024-03-29T06:30:13;8.50;68.90
10453;DHT22;5274;51.992;8.518;2024-03-29T06:32:39;8.50;69.30
10453;DHT22;5274;51.992;8.518;2024-03-29T06:35:04;8.50;69.00
10453;DHT22;5274;51.992;8.518;2024-03-29T06:37:31;8.60;69.00
10453;DHT22;5274;51.992;8.518;2024-03-29T06:39:56;8.60;68.90
10453;DHT22;5274;51.992;8.518;2024-03-29T06:42:22;8.60;69.30
10453;DHT22;5274;51.992;8.518;2024-03-29T06:44:48;8.50;70.10
10453;DHT22;5274;51.992;8.518;2024-03-29T06:47:13;8.50;70.30
10453;DHT22;5274;51.992;8.518;2024-03-29T06:49:39;8.60;69.10
10453;DHT22;5274;51.992;8.518;2024-03-29T06:52:04;8.50;69.80
10453;DHT22;5274;51.992;8.518;2024-03-29T06:54:30;8.50;70.10
10453;DHT22;5274;51.992;8.518;2024-03-29T06:56:58;8.50;69.60
10453;DHT22;5274;51.992;8.518;2024-03-29T06:59:23;8.40;70.80
10453;DHT22;5274;51.992;8.518;2024-03-29T07:01:49;8.50;70.50
10453;DHT22;5274;51.992;8.518;2024-03-29T07:04:22;8.60;70.30
10453;DHT22;5274;51.992;8.518;2024-03-29T07:06:48;8.60;70.50
10453;DHT22;5274;51.992;8.518;2024-03-29T07:09:17;8.70;70.00
10453;DHT22;5274;51.992;8.518;2024-03-29T07:11:44;8.80;69.30
10453;DHT22;5274;51.992;8.518;2024-03-29T07:14:10;8.90;68.80
10453;DHT22;5274;51.992;8.518;2024-03-29T07:16:35;8.70;69.20
10453;DHT22;5274;51.992;8.518;2024-03-29T07:19:01;8.60;69.70
10453;DHT22;5274;51.992;8.518;2024-03-29T07:21:28;8.60;70.30
10453;DHT22;5274;51.992;8.518;2024-03-29T07:23:53;8.50;70.80
10453;DHT22;5274;51.992;8.518;2024-03-29T07:26:19;8.50;71.10
10453;DHT22;5274;51.992;8.518;2024-03-29T07:28:44;8.70;71.00
10453;DHT22;5274;51.992;8.518;2024-03-29T07:31:10;8.60;71.40
10453;DHT22;5274;51.992;8.518;2024-03-29T07:33:36;8.70;71.30
10453;DHT22;5274;51.992;8.518;2024-03-29T07:36:02;8.80;70.80
10453;DHT22;5274;51.992;8.518;2024-03-29T07:38:29;8.70;70.70
10453;DHT22;5274;51.992;8.518;2024-03-29T07:40:55;8.70;71.40
10453;DHT22;5274;51.992;8.518;2024-03-29T07:43:22;8.70;71.10
10453;DHT22;5274;51.992;8.518;2024-03-29T07:45:48;8.70;71.00
10453;DHT22;5274;51.992;8.518;2024-03-29T07:48:15;8.70;70.80
10453;DHT22;5274;51.992;8.518;2024-03-29T07:50:41;8.80;71.90
10453;DHT22;5274;51.992;8.518;2024-03-29T07:53:07;8.90;71.80
10453;DHT22;5274;51.992;8.518;2024-03-29T07:55:38;8.80;71.70
10453;DHT22;5274;51.992;8.518;2024-03-29T07:58:04;8.80;71.50
10453;DHT22;5274;51.992;8.518;2024-03-29T08:00:32;8.80;72.50
10453;DHT22;5274;51.992;8.518;2024-03-29T08:02:58;8.90;71.40
10453;DHT22;5274;51.992;8.518;2024-03-29T08:05:23;9.00;72.20
10453;DHT22;5274;51.992;8.518;2024-03-29T08:07:49;9.10;72.00
10453;DHT22;5274;51.992;8.518;2024-03-29T08:10:14;9.10;71.20
10453;DHT22;5274;51.992;8.518;2024-03-29T08:12:40;9.20;71.20
10453;DHT22;5274;51.992;8.518;2024-03-29T08:15:06;9.10;71.50
10453;DHT22;5274;51.992;8.518;2024-03-29T08:17:32;9.30;70.90
10453;DHT22;5274;51.992;8.518;2024-03-29T08:19:58;9.30;70.50
10453;DHT22;5274;51.992;8.518;2024-03-29T08:22:23;9.20;71.20
10453;DHT22;5274;51.992;8.518;2024-03-29T08:24:49;9.10;71.50
10453;DHT22;5274;51.992;8.518;2024-03-29T08:27:14;9.20;71.30
10453;DHT22;5274;51.992;8.518;2024-03-29T08:29:43;9.20;71.80
10453;DHT22;5274;51.992;8.518;2024-03-29T08:32:09;9.20;72.20
10453;DHT22;5274;51.992;8.518;2024-03-29T08:34:36;9.10;72.30
10453;DHT22;5274;51.992;8.518;2024-03-29T08:37:02;9.20;73.10
10453;DHT22;5274;51.992;8.518;2024-03-29T08:39:31;9.20;73.00
10453;DHT22;5274;51.992;8.518;2024-03-29T08:41:57;9.30;72.30
10453;DHT22;5274;51.992;8.518;2024-03-29T08:44:23;9.30;72.30
10453;DHT22;5274;51.992;8.518;2024-03-29T08:46:50;9.40;72.10
10453;DHT22;5274;51.992;8.518;2024-03-29T08:49:16;9.30;72.60
10453;DHT22;5274;51.992;8.518;2024-03-29T08:51:41;9.30;72.80
10453;DHT22;5274;51.992;8.518;2024-03-29T08:54:07;9.40;72.80
10453;DHT22;5274;51.992;8.518;2024-03-29T08:56:32;9.40;72.50
10453;DHT22;5274;51.992;8.518;2024-03-29T08:59:00;9.50;72.60
10453;DHT22;5274;51.992;8.518;2024-03-29T09:01:28;9.40;72.70
10453;DHT22;5274;51.992;8.518;2024-03-29T09:03:53;9.60;72.30
10453;DHT22;5274;51.992;8.518;2024-03-29T09:06:19;9.70;72.00
10453;DHT22;5274;51.992;8.518;2024-03-29T09:08:44;9.70;71.90
10453;DHT22;5274;51.992;8.518;2024-03-29T09:11:10;9.80;71.40
10453;DHT22;5274;51.992;8.518;2024-03-29T09:13:37;9.80;71.60
10453;DHT22;5274;51.992;8.518;2024-03-29T09:16:02;9.80;71.70
10453;DHT22;5274;51.992;8.518;2024-03-29T09:18:28;9.90;72.10
10453;DHT22;5274;51.992;8.518;2024-03-29T09:21:00;9.90;72.40
10453;DHT22;5274;51.992;8.518;2024-03-29T09:23:28;10.00;72.40
10453;DHT22;5274;51.992;8.518;2024-03-29T09:25:55;10.10;72.50
10453;DHT22;5274;51.992;8.518;2024-03-29T09:28:21;10.30;71.50
10453;DHT22;5274;51.992;8.518;2024-03-29T09:30:47;10.40;71.20
10453;DHT22;5274;51.992;8.518;2024-03-29T09:33:13;10.60;70.50
10453;DHT22;5274;51.992;8.518;2024-03-29T09:35:38;10.70;70.90
10453;DHT22;5274;51.992;8.518;2024-03-29T09:38:04;10.70;70.70
10453;DHT22;5274;51.992;8.518;2024-03-29T09:40:30;10.70;70.70
10453;DHT22;5274;51.992;8.518;2024-03-29T09:42:56;10.70;70.80
10453;DHT22;5274;51.992;8.518;2024-03-29T09:45:37;10.70;71.00
10453;DHT22;5274;51.992;8.518;2024-03-29T09:48:04;10.80;70.30
10453;DHT22;5274;51.992;8.518;2024-03-29T09:50:37;10.80;70.40
10453;DHT22;5274;51.992;8.518;2024-03-29T09:53:04;10.80;70.90
10453;DHT22;5274;51.992;8.518;2024-03-29T09:55:30;10.90;70.30
10453;DHT22;5274;51.992;8.518;2024-03-29T09:57:57;11.00;69.40
10453;DHT22;5274;51.992;8.518;2024-03-29T10:00:23;10.90;70.40
10453;DHT22;5274;51.992;8.518;2024-03-29T10:02:50;11.20;69.50
10453;DHT22;5274;51.992;8.518;2024-03-29T10:05:18;11.40;68.80
10453;DHT22;5274;51.992;8.518;2024-03-29T10:07:45;11.50;68.60
10453;DHT22;5274;51.992;8.518;2024-03-29T10:10:11;11.60;68.60
10453;DHT22;5274;51.992;8.518;2024-03-29T10:12:37;11.50;68.30
10453;DHT22;5274;51.992;8.518;2024-03-29T10:15:04;11.50;68.10
10453;DHT22;5274;51.992;8.518;2024-03-29T10:17:47;11.40;68.60
10453;DHT22;5274;51.992;8.518;2024-03-29T10:20:17;11.40;68.30
10453;DHT22;5274;51.992;8.518;2024-03-29T10:22:45;11.40;68.00
10453;DHT22;5274;51.992;8.518;2024-03-29T10:25:15;11.60;67.30
10453;DHT22;5274;51.992;8.518;2024-03-29T10:27:41;11.60;66.80
10453;DHT22;5274;51.992;8.518;2024-03-29T10:30:08;11.60;67.50
10453;DHT22;5274;51.992;8.518;2024-03-29T10:32:36;11.60;67.80
10453;DHT22;5274;51.992;8.518;2024-03-29T10:35:02;11.70;67.80
10453;DHT22;5274;51.992;8.518;2024-03-29T10:37:28;11.70;67.40
10453;DHT22;5274;51.992;8.518;2024-03-29T10:39:57;11.90;66.10
10453;DHT22;5274;51.992;8.518;2024-03-29T10:42:24;11.90;65.50
10453;DHT22;5274;51.992;8.518;2024-03-29T10:44:51;11.90;66.00
10453;DHT22;5274;51.992;8.518;2024-03-29T10:47:20;12.00;66.40
10453;DHT22;5274;51.992;8.518;2024-03-29T10:49:50;12.00;65.80
10453;DHT22;5274;51.992;8.518;2024-03-29T10:52:21;12.00;66.10
10453;DHT22;5274;51.992;8.518;2024-03-29T10:54:47;12.00;66.70
10453;DHT22;5274;51.992;8.518;2024-03-29T10:57:33;12.00;65.80
10453;DHT22;5274;51.992;8.518;2024-03-29T11:00:11;12.10;65.80
10453;DHT22;5274;51.992;8.518;2024-03-29T11:02:57;12.10;65.50
10453;DHT22;5274;51.992;8.518;2024-03-29T11:05:29;12.10;65.40
10453;DHT22;5274;51.992;8.518;2024-03-29T11:07:56;12.00;66.00
10453;DHT22;5274;51.992;8.518;2024-03-29T11:10:31;12.00;66.00
10453;DHT22;5274;51.992;8.518;2024-03-29T11:13:12;12.00;65.60
10453;DHT22;5274;51.992;8.518;2024-03-29T11:15:44;12.00;65.40
10453;DHT22;5274;51.992;8.518;2024-03-29T11:18:10;11.90;65.40
10453;DHT22;5274;51.992;8.518;2024-03-29T11:20:36;11.90;66.60
10453;DHT22;5274;51.992;8.518;2024-03-29T11:23:09;12.00;66.40
10453;DHT22;5274;51.992;8.518;2024-03-29T11:25:49;12.10;65.80
10453;DHT22;5274;51.992;8.518;2024-03-29T11:28:22;12.20;65.30
10453;DHT22;5274;51.992;8.518;2024-03-29T11:30:50;12.20;67.10
10453;DHT22;5274;51.992;8.518;2024-03-29T11:33:45;12.30;66.70
10453;DHT22;5274;51.992;8.518;2024-03-29T11:36:12;12.70;65.60
10453;DHT22;5274;51.992;8.518;2024-03-29T11:38:39;13.10;63.40
10453;DHT22;5274;51.992;8.518;2024-03-29T11:41:07;13.20;62.00
10453;DHT22;5274;51.992;8.518;2024-03-29T11:43:34;13.20;61.40
10453;DHT22;5274;51.992;8.518;2024-03-29T11:46:01;12.90;62.70
10453;DHT22;5274;51.992;8.518;2024-03-29T11:48:28;12.80;62.90
10453;DHT22;5274;51.992;8.518;2024-03-29T11:50:54;12.60;63.90
10453;DHT22;5274;51.992;8.518;2024-03-29T11:53:20;12.70;62.90
10453;DHT22;5274;51.992;8.518;2024-03-29T11:55:46;12.70;63.20
10453;DHT22;5274;51.992;8.518;2024-03-29T11:58:14;12.70;63.70
10453;DHT22;5274;51.992;8.518;2024-03-29T12:00:40;12.80;64.30
10453;DHT22;5274;51.992;8.518;2024-03-29T12:03:09;13.00;63.30
10453;DHT22;5274;51.992;8.518;2024-03-29T12:05:35;13.10;62.00
10453;DHT22;5274;51.992;8.518;2024-03-29T12:08:01;13.00;62.80
10453;DHT22;5274;51.992;8.518;2024-03-29T12:10:30;13.00;61.90
10453;DHT22;5274;51.992;8.518;2024-03-29T12:12:58;12.80;63.60
10453;DHT22;5274;51.992;8.518;2024-03-29T12:15:24;12.80;62.20
10453;DHT22;5274;51.992;8.518;2024-03-29T12:18:01;12.80;62.10
10453;DHT22;5274;51.992;8.518;2024-03-29T12:20:29;12.90;61.90
10453;DHT22;5274;51.992;8.518;2024-03-29T12:22:56;12.90;62.00
10453;DHT22;5274;51.992;8.518;2024-03-29T12:25:21;12.90;62.70
10453;DHT22;5274;51.992;8.518;2024-03-29T12:27:47;13.00;62.40
10453;DHT22;5274;51.992;8.518;2024-03-29T12:30:13;13.40;62.70
10453;DHT22;5274;51.992;8.518;2024-03-29T12:32:40;13.60;61.90
10453;DHT22;5274;51.992;8.518;2024-03-29T12:35:15;14.00;62.90
10453;DHT22;5274;51.992;8.518;2024-03-29T12:37:48;14.30;60.80
10453;DHT22;5274;51.992;8.518;2024-03-29T12:40:16;14.80;58.90
10453;DHT22;5274;51.992;8.518;2024-03-29T12:42:47;14.80;57.90
10453;DHT22;5274;51.992;8.518;2024-03-29T12:45:13;14.90;56.80
10453;DHT22;5274;51.992;8.518;2024-03-29T12:47:38;14.80;56.70
10453;DHT22;5274;51.992;8.518;2024-03-29T12:50:04;14.70;56.70
10453;DHT22;5274;51.992;8.518;2024-03-29T12:52:41;14.40;57.40
10453;DHT22;5274;51.992;8.518;2024-03-29T12:55:07;14.20;58.00
10453;DHT22;5274;51.992;8.518;2024-03-29T12:57:34;13.90;58.30
10453;DHT22;5274;51.992;8.518;2024-03-29T13:00:00;13.80;59.80
10453;DHT22;5274;51.992;8.518;2024-03-29T13:02:26;13.80;60.40
10453;DHT22;5274;51.992;8.518;2024-03-29T13:04:52;13.90;59.50
10453;DHT22;5274;51.992;8.518;2024-03-29T13:07:17;14.20;59.80
10453;DHT22;5274;51.992;8.518;2024-03-29T13:09:43;15.00;60.70
10453;DHT22;5274;51.992;8.518;2024-03-29T13:12:08;15.90;54.90
10453;DHT22;5274;51.992;8.518;2024-03-29T13:14:34;16.20;54.90
10453;DHT22;5274;51.992;8.518;2024-03-29T13:16:59;16.50;54.50
10453;DHT22;5274;51.992;8.518;2024-03-29T13:19:25;16.90;51.60
10453;DHT22;5274;51.992;8.518;2024-03-29T13:21:51;17.00;52.50
10453;DHT22;5274;51.992;8.518;2024-03-29T13:24:16;17.10;50.80
10453;DHT22;5274;51.992;8.518;2024-03-29T13:26:42;16.90;51.50
10453;DHT22;5274;51.992;8.518;2024-03-29T13:29:07;16.70;51.10
10453;DHT22;5274;51.992;8.518;2024-03-29T13:31:33;16.40;51.50
10453;DHT22;5274;51.992;8.518;2024-03-29T13:33:58;16.00;54.30
10453;DHT22;5274;51.992;8.518;2024-03-29T13:36:40;16.10;54.80
10453;DHT22;5274;51.992;8.518;2024-03-29T13:39:07;16.50;53.10
10453;DHT22;5274;51.992;8.518;2024-03-29T13:41:33;16.70;53.70
10453;DHT22;5274;51.992;8.518;2024-03-29T13:44:01;17.20;50.90
10453;DHT22;5274;51.992;8.518;2024-03-29T13:46:34;17.20;50.30
10453;DHT22;5274;51.992;8.518;2024-03-29T13:49:00;16.90;50.70
10453;DHT22;5274;51.992;8.518;2024-03-29T13:51:26;16.90;53.70
10453;DHT22;5274;51.992;8.518;2024-03-29T13:53:51;17.00;49.60
10453;DHT22;5274;51.992;8.518;2024-03-29T13:56:17;16.90;49.90
10453;DHT22;5274;51.992;8.518;2024-03-29T13:58:42;16.60;50.10
10453;DHT22;5274;51.992;8.518;2024-03-29T14:01:07;16.20;51.90
10453;DHT22;5274;51.992;8.518;2024-03-29T14:03:34;16.10;51.20
10453;DHT22;5274;51.992;8.518;2024-03-29T14:05:59;16.10;54.50
10453;DHT22;5274;51.992;8.518;2024-03-29T14:08:25;16.80;50.30
10453;DHT22;5274;51.992;8.518;2024-03-29T14:10:51;16.70;50.00
10453;DHT22;5274;51.992;8.518;2024-03-29T14:13:19;16.20;50.70
10453;DHT22;5274;51.992;8.518;2024-03-29T14:15:44;15.90;52.40
10453;DHT22;5274;51.992;8.518;2024-03-29T14:18:10;15.80;53.00
10453;DHT22;5274;51.992;8.518;2024-03-29T14:20:35;15.90;53.40
10453;DHT22;5274;51.992;8.518;2024-03-29T14:23:01;16.40;53.70
10453;DHT22;5274;51.992;8.518;2024-03-29T14:25:34;17.90;50.00
10453;DHT22;5274;51.992;8.518;2024-03-29T14:28:01;18.80;48.10
10453;DHT22;5274;51.992;8.518;2024-03-29T14:30:27;18.90;44.90
10453;DHT22;5274;51.992;8.518;2024-03-29T14:32:54;18.20;45.60
10453;DHT22;5274;51.992;8.518;2024-03-29T14:35:19;17.40;46.90
10453;DHT22;5274;51.992;8.518;2024-03-29T14:37:46;16.90;48.50
10453;DHT22;5274;51.992;8.518;2024-03-29T14:40:12;16.50;49.60
10453;DHT22;5274;51.992;8.518;2024-03-29T14:42:41;16.40;50.30
10453;DHT22;5274;51.992;8.518;2024-03-29T14:45:08;16.40;52.00
10453;DHT22;5274;51.992;8.518;2024-03-29T14:47:36;16.60;51.00
10453;DHT22;5274;51.992;8.518;2024-03-29T14:50:02;17.60;50.20
10453;DHT22;5274;51.992;8.518;2024-03-29T14:52:33;18.70;46.20
10453;DHT22;5274;51.992;8.518;2024-03-29T14:54:59;18.70;44.40
10453;DHT22;5274;51.992;8.518;2024-03-29T14:57:25;18.10;44.50
10453;DHT22;5274;51.992;8.518;2024-03-29T14:59:50;17.40;46.10
10453;DHT22;5274;51.992;8.518;2024-03-29T15:02:16;16.60;48.00
10453;DHT22;5274;51.992;8.518;2024-03-29T15:04:41;16.10;49.70
10453;DHT22;5274;51.992;8.518;2024-03-29T15:07:07;15.70;51.10
10453;DHT22;5274;51.992;8.518;2024-03-29T15:09:33;15.30;52.50
10453;DHT22;5274;51.992;8.518;2024-03-29T15:12:00;15.10;53.20
10453;DHT22;5274;51.992;8.518;2024-03-29T15:14:27;15.00;53.40
10453;DHT22;5274;51.992;8.518;2024-03-29T15:16:53;14.80;53.30
10453;DHT22;5274;51.992;8.518;2024-03-29T15:19:18;14.70;54.70
10453;DHT22;5274;51.992;8.518;2024-03-29T15:21:44;14.60;54.90
10453;DHT22;5274;51.992;8.518;2024-03-29T15:24:09;14.50;56.60
10453;DHT22;5274;51.992;8.518;2024-03-29T15:26:35;14.60;56.70
10453;DHT22;5274;51.992;8.518;2024-03-29T15:29:04;15.10;56.60
10453;DHT22;5274;51.992;8.518;2024-03-29T15:31:40;15.60;55.20
10453;DHT22;5274;51.992;8.518;2024-03-29T15:34:07;15.70;54.70
10453;DHT22;5274;51.992;8.518;2024-03-29T15:36:34;15.70;54.90
10453;DHT22;5274;51.992;8.518;2024-03-29T15:39:01;15.50;54.90
10453;DHT22;5274;51.992;8.518;2024-03-29T15:41:37;15.40;55.50
10453;DHT22;5274;51.992;8.518;2024-03-29T15:44:06;15.40;55.20
10453;DHT22;5274;51.992;8.518;2024-03-29T15:46:33;15.40;55.60
10453;DHT22;5274;51.992;8.518;2024-03-29T15:48:59;15.40;55.30
10453;DHT22;5274;51.992;8.518;2024-03-29T15:51:25;15.40;54.50
10453;DHT22;5274;51.992;8.518;2024-03-29T15:53:51;15.30;55.50